Time;durP1;ratioP1;P1;durP2;ratioP2;P2;SDS_P1;SDS_P2;PMS_P1;PMS_P2;Temp;Humidity;BMP_temperature;BMP_pressure;BME280_temperature;BME280_humidity;BME280_pressure;Samples;Min_cycle;Max_cycle;Signal;HPM_P1;HPM_P2
2022/09/18 00:01:10;;;;;;;7.22;1.80;;;;;;;;;;4973382;28;20042;-80
2022/09/18 00:03:39;;;;;;;5.80;2.10;;;;;;;;;;4960507;28;20064;-81
2022/09/18 00:06:12;;;;;;;5.45;2.25;;;;;;;;;;4973572;28;20125;-81
2022/09/18 00:08:38;;;;;;;4.72;1.60;;;;;;;;;;4969902;28;20030;-81
2022/09/18 00:11:07;;;;;;;4.15;1.70;;;;;;;;;;4988733;28;20041;-83
2022/09/18 00:13:34;;;;;;;4.70;1.88;;;;;;;;;;4991715;28;20033;-84
2022/09/18 00:16:00;;;;;;;3.47;1.27;;;;;;;;;;4978019;28;20033;-84
2022/09/18 00:18:26;;;;;;;4.32;1.52;;;;;;;;;;4977693;28;20446;-85
2022/09/18 00:20:51;;;;;;;2.85;1.35;;;;;;;;;;4992642;28;20389;-85
2022/09/18 00:23:16;;;;;;;3.65;1.20;;;;;;;;;;4981171;28;20068;-86
2022/09/18 00:25:42;;;;;;;2.60;1.10;;;;;;;;;;4995463;28;20084;-85
2022/09/18 00:28:07;;;;;;;4.00;1.13;;;;;;;;;;4985565;28;20038;-85
2022/09/18 00:30:32;;;;;;;3.05;1.20;;;;;;;;;;4979172;28;20038;-84
2022/09/18 00:32:58;;;;;;;2.92;1.00;;;;;;;;;;4983196;28;20088;-85
2022/09/18 00:35:23;;;;;;;1.98;0.90;;;;;;;;;;4988981;28;20508;-84
2022/09/18 00:37:49;;;;;;;3.22;1.05;;;;;;;;;;4994768;28;20077;-84
2022/09/18 00:40:15;;;;;;;3.55;0.95;;;;;;;;;;4976266;28;20044;-84
2022/09/18 00:42:40;;;;;;;2.58;0.93;;;;;;;;;;5011392;28;20034;-85
2022/09/18 00:45:06;;;;;;;3.08;1.10;;;;;;;;;;4996270;28;20033;-85
2022/09/18 00:47:37;;;;;;;2.92;1.00;;;;;;;;;;4977859;28;20034;-85
2022/09/18 00:50:11;;;;;;;2.25;0.90;;;;;;;;;;4982893;28;20512;-85
2022/09/18 00:53:04;;;;;;;3.00;1.10;;;;;;;;;;4995348;28;20038;-86
2022/09/18 00:55:32;;;;;;;2.13;0.90;;;;;;;;;;4968156;28;20050;-85
2022/09/18 00:57:59;;;;;;;2.42;1.00;;;;;;;;;;4997473;28;20042;-86
2022/09/18 01:00:25;;;;;;;2.72;1.00;;;;;;;;;;4978910;28;20030;-84
2022/09/18 01:02:53;;;;;;;2.45;0.90;;;;;;;;;;4995331;28;20041;-84
2022/09/18 01:05:28;;;;;;;3.38;0.90;;;;;;;;;;4973165;28;20065;-85
2022/09/18 01:07:58;;;;;;;2.63;0.85;;;;;;;;;;4989896;28;20039;-85
2022/09/18 01:10:41;;;;;;;3.03;0.80;;;;;;;;;;4971685;28;20034;-85
2022/09/18 01:13:19;;;;;;;2.15;0.82;;;;;;;;;;4965796;28;20035;-86
2022/09/18 01:15:51;;;;;;;1.58;0.55;;;;;;;;;;4974244;28;20034;-87
2022/09/18 01:18:25;;;;;;;1.80;0.80;;;;;;;;;;4954910;28;20046;-85
2022/09/18 01:21:05;;;;;;;3.25;0.80;;;;;;;;;;4955904;28;20088;-85
2022/09/18 01:23:55;;;;;;;1.80;0.70;;;;;;;;;;4976714;28;20109;-86
2022/09/18 01:26:23;;;;;;;2.25;0.70;;;;;;;;;;4975138;28;20185;-85
2022/09/18 01:28:59;;;;;;;2.40;0.80;;;;;;;;;;4976714;28;20030;-85
2022/09/18 01:31:38;;;;;;;2.10;0.60;;;;;;;;;;4959436;28;20034;-84
2022/09/18 01:34:15;;;;;;;1.15;0.60;;;;;;;;;;4978813;28;20034;-86
2022/09/18 01:36:44;;;;;;;1.60;0.60;;;;;;;;;;4959960;28;20166;-85
2022/09/18 01:39:14;;;;;;;1.40;0.80;;;;;;;;;;4978515;28;20490;-86
2022/09/18 01:41:40;;;;;;;3.30;0.60;;;;;;;;;;4963605;28;20490;-85
2022/09/18 01:44:12;;;;;;;1.13;0.50;;;;;;;;;;4967818;28;20443;-85
2022/09/18 01:46:39;;;;;;;1.85;0.60;;;;;;;;;;4977508;28;20085;-85
2022/09/18 01:49:09;;;;;;;1.75;0.60;;;;;;;;;;4948209;28;20050;-85
2022/09/18 01:51:44;;;;;;;1.63;0.60;;;;;;;;;;4959925;28;20041;-86
2022/09/18 01:54:14;;;;;;;1.80;0.90;;;;;;;;;;4953601;28;20427;-85
2022/09/18 01:56:46;;;;;;;1.48;0.60;;;;;;;;;;4975991;28;20045;-85
2022/09/18 01:59:18;;;;;;;2.80;0.75;;;;;;;;;;4958864;28;20041;-85
2022/09/18 02:01:44;;;;;;;1.15;0.50;;;;;;;;;;4959017;28;20030;-84
2022/09/18 02:04:14;;;;;;;1.35;0.50;;;;;;;;;;4958439;28;20482;-85
2022/09/18 02:06:43;;;;;;;3.05;0.60;;;;;;;;;;4974188;28;20076;-84
2022/09/18 02:09:10;;;;;;;1.15;0.60;;;;;;;;;;4985642;28;20061;-84
2022/09/18 02:11:39;;;;;;;1.30;0.63;;;;;;;;;;4990599;28;20509;-85
2022/09/18 02:14:07;;;;;;;1.95;0.52;;;;;;;;;;4990649;28;20038;-84
2022/09/18 02:16:44;;;;;;;5.70;1.00;;;;;;;;;;5010683;28;20088;-86
2022/09/18 02:19:22;;;;;;;2.35;0.82;;;;;;;;;;4986698;28;20053;-85
2022/09/18 02:21:48;;;;;;;1.65;0.70;;;;;;;;;;4985142;28;20045;-84
2022/09/18 02:24:17;;;;;;;2.63;0.88;;;;;;;;;;4985150;28;20121;-84
2022/09/18 02:26:44;;;;;;;2.50;0.90;;;;;;;;;;4980431;28;20061;-85
2022/09/18 02:29:11;;;;;;;2.67;0.80;;;;;;;;;;4985123;28;20053;-84
2022/09/18 02:31:37;;;;;;;2.45;0.88;;;;;;;;;;4981214;28;20078;-83
2022/09/18 02:34:03;;;;;;;3.08;0.88;;;;;;;;;;4976592;28;20094;-85
2022/09/18 02:36:41;;;;;;;1.48;0.80;;;;;;;;;;4973278;28;20112;-85
2022/09/18 02:39:39;;;;;;;2.30;0.90;;;;;;;;;;4989248;28;20030;-85
2022/09/18 02:42:23;;;;;;;3.65;0.95;;;;;;;;;;4961352;28;20398;-86
2022/09/18 02:45:07;;;;;;;3.25;1.13;;;;;;;;;;4993607;28;20044;-86
2022/09/18 02:48:08;;;;;;;2.72;0.90;;;;;;;;;;4994878;28;20041;-86
2022/09/18 02:50:55;;;;;;;3.63;1.10;;;;;;;;;;4976686;28;20034;-86
2022/09/18 02:53:37;;;;;;;5.93;1.55;;;;;;;;;;4995816;28;20425;-85
2022/09/18 02:56:41;;;;;;;3.30;1.00;;;;;;;;;;4980042;28;20036;-85
2022/09/18 02:59:23;;;;;;;4.10;1.10;;;;;;;;;;4981217;28;20450;-85
2022/09/18 03:01:49;;;;;;;6.78;1.10;;;;;;;;;;4992825;28;20042;-85
2022/09/18 03:04:20;;;;;;;6.28;1.40;;;;;;;;;;4977433;28;20042;-86
2022/09/18 03:06:45;;;;;;;5.63;1.20;;;;;;;;;;4994813;28;20109;-85
2022/09/18 03:09:11;;;;;;;4.53;1.55;;;;;;;;;;4979954;28;20094;-86
2022/09/18 03:11:36;;;;;;;5.28;1.00;;;;;;;;;;4979083;28;20092;-84
2022/09/18 03:14:02;;;;;;;5.55;1.70;;;;;;;;;;4979112;28;20112;-85
2022/09/18 03:16:28;;;;;;;6.45;1.23;;;;;;;;;;4982740;28;20026;-85
2022/09/18 03:18:53;;;;;;;5.15;1.00;;;;;;;;;;4981872;28;20042;-86
2022/09/18 03:21:19;;;;;;;5.15;1.20;;;;;;;;;;5007572;28;20034;-86
2022/09/18 03:23:45;;;;;;;7.38;1.42;;;;;;;;;;4996496;28;20096;-86
2022/09/18 03:26:13;;;;;;;6.60;1.20;;;;;;;;;;4977721;28;20042;-85
2022/09/18 03:28:38;;;;;;;8.32;1.42;;;;;;;;;;4979748;28;20049;-86
2022/09/18 03:31:04;;;;;;;5.25;1.05;;;;;;;;;;4977355;28;20061;-87
2022/09/18 03:33:29;;;;;;;7.20;1.80;;;;;;;;;;4975535;28;20033;-86
2022/09/18 03:35:54;;;;;;;5.10;1.30;;;;;;;;;;4976346;28;20033;-85
2022/09/18 03:38:20;;;;;;;5.25;1.42;;;;;;;;;;4982971;28;20116;-83
2022/09/18 03:40:45;;;;;;;5.03;1.50;;;;;;;;;;4975047;28;20034;-86
2022/09/18 03:43:11;;;;;;;10.45;2.00;;;;;;;;;;4979229;28;20060;-86
2022/09/18 03:45:36;;;;;;;8.27;2.42;;;;;;;;;;4994991;28;20447;-86
2022/09/18 03:48:02;;;;;;;4.82;1.40;;;;;;;;;;4977223;28;20042;-85
2022/09/18 03:50:28;;;;;;;7.18;2.10;;;;;;;;;;4979708;28;20038;-85
2022/09/18 03:52:53;;;;;;;6.22;1.48;;;;;;;;;;4995892;28;20434;-85
2022/09/18 03:55:19;;;;;;;4.85;1.52;;;;;;;;;;4984258;28;20089;-85
2022/09/18 03:57:45;;;;;;;7.30;1.85;;;;;;;;;;4984828;28;20040;-85
2022/09/18 04:00:12;;;;;;;6.78;1.88;;;;;;;;;;4997460;28;20053;-85
2022/09/18 04:02:38;;;;;;;5.53;1.58;;;;;;;;;;4988916;28;20038;-85
2022/09/18 04:05:04;;;;;;;6.82;1.92;;;;;;;;;;4984388;28;20052;-86
2022/09/18 04:07:29;;;;;;;5.40;1.90;;;;;;;;;;4981304;28;20478;-85
2022/09/18 04:09:55;;;;;;;4.50;1.63;;;;;;;;;;5002142;28;20038;-85
2022/09/18 04:12:20;;;;;;;7.05;2.15;;;;;;;;;;4980608;28;20087;-83
2022/09/18 04:14:45;;;;;;;6.05;1.80;;;;;;;;;;4997812;28;20575;-85
2022/09/18 04:17:11;;;;;;;3.90;1.70;;;;;;;;;;4975032;28;20057;-85
2022/09/18 04:19:36;;;;;;;6.80;2.05;;;;;;;;;;4982075;28;20038;-84
2022/09/18 04:22:02;;;;;;;6.15;1.95;;;;;;;;;;4978888;28;20045;-87
2022/09/18 04:24:28;;;;;;;4.78;1.85;;;;;;;;;;4980704;28;20073;-85
2022/09/18 04:26:53;;;;;;;7.93;1.90;;;;;;;;;;4977938;28;20030;-84
2022/09/18 04:29:19;;;;;;;6.47;1.80;;;;;;;;;;4982428;28;20417;-86
2022/09/18 04:31:44;;;;;;;9.10;1.90;;;;;;;;;;4974335;28;20034;-85
2022/09/18 04:34:09;;;;;;;7.70;2.00;;;;;;;;;;4989764;28;20108;-86
2022/09/18 04:36:35;;;;;;;5.25;2.03;;;;;;;;;;4979200;28;20089;-84
2022/09/18 04:39:00;;;;;;;4.90;1.50;;;;;;;;;;4984006;28;20046;-85
2022/09/18 04:41:25;;;;;;;6.50;1.50;;;;;;;;;;4998257;28;20046;-84
2022/09/18 04:43:50;;;;;;;4.35;1.33;;;;;;;;;;4981324;28;20037;-84
2022/09/18 04:46:16;;;;;;;6.78;2.05;;;;;;;;;;4997594;28;20529;-85
2022/09/18 04:48:44;;;;;;;3.40;1.23;;;;;;;;;;4977748;28;20171;-86
2022/09/18 04:51:10;;;;;;;5.20;0.95;;;;;;;;;;4979059;28;20129;-86
2022/09/18 04:53:36;;;;;;;8.35;1.45;;;;;;;;;;4980740;28;20092;-84
2022/09/18 04:56:02;;;;;;;5.68;1.10;;;;;;;;;;4995939;28;20257;-84
2022/09/18 04:58:27;;;;;;;4.18;1.30;;;;;;;;;;4978558;28;20498;-85
2022/09/18 05:00:53;;;;;;;5.43;1.17;;;;;;;;;;4998605;28;20045;-85
2022/09/18 05:03:19;;;;;;;4.30;1.42;;;;;;;;;;4984776;28;20034;-85
2022/09/18 05:05:45;;;;;;;2.93;1.33;;;;;;;;;;4973453;28;20049;-85
2022/09/18 05:08:10;;;;;;;6.95;1.58;;;;;;;;;;4981449;28;20062;-85
2022/09/18 05:10:36;;;;;;;5.85;1.20;;;;;;;;;;4959086;28;20037;-84
2022/09/18 05:13:01;;;;;;;7.13;1.90;;;;;;;;;;4977361;28;20042;-84
2022/09/18 05:15:26;;;;;;;4.00;1.35;;;;;;;;;;4980393;28;20702;-85
2022/09/18 05:18:03;;;;;;;3.88;1.02;;;;;;;;;;4993320;28;20090;-84
2022/09/18 05:20:29;;;;;;;5.20;1.00;;;;;;;;;;4977525;28;20034;-86
2022/09/18 05:22:54;;;;;;;4.50;1.63;;;;;;;;;;4965525;28;20035;-86
2022/09/18 05:25:26;;;;;;;4.22;1.10;;;;;;;;;;4978376;28;20037;-85
2022/09/18 05:27:59;;;;;;;5.57;0.82;;;;;;;;;;4996027;28;20038;-84
2022/09/18 05:30:28;;;;;;;2.63;0.80;;;;;;;;;;4966317;28;20030;-84
2022/09/18 05:33:05;;;;;;;4.15;0.88;;;;;;;;;;4967632;28;20045;-84
2022/09/18 05:35:32;;;;;;;6.60;1.30;;;;;;;;;;4984860;28;20456;-84
2022/09/18 05:37:57;;;;;;;3.05;0.90;;;;;;;;;;4983352;28;20057;-84
2022/09/18 05:40:31;;;;;;;2.92;0.90;;;;;;;;;;4983160;28;20477;-85
2022/09/18 05:42:57;;;;;;;6.82;1.30;;;;;;;;;;4972037;28;20514;-84
2022/09/18 05:45:24;;;;;;;2.83;0.90;;;;;;;;;;4981969;28;20072;-84
2022/09/18 05:48:00;;;;;;;2.73;0.70;;;;;;;;;;4985710;28;20034;-85
2022/09/18 05:50:27;;;;;;;4.10;1.08;;;;;;;;;;4979977;28;20026;-86
2022/09/18 05:53:13;;;;;;;4.05;1.10;;;;;;;;;;4983775;28;20034;-86
2022/09/18 05:55:39;;;;;;;2.92;0.85;;;;;;;;;;4975532;28;20046;-85
2022/09/18 05:58:06;;;;;;;2.72;0.80;;;;;;;;;;4963923;28;20037;-85
2022/09/18 06:00:36;;;;;;;2.58;0.70;;;;;;;;;;4981125;28;20547;-84
2022/09/18 06:03:04;;;;;;;5.85;0.88;;;;;;;;;;4979409;28;20057;-85
2022/09/18 06:05:33;;;;;;;3.83;0.85;;;;;;;;;;4989895;28;20043;-87
2022/09/18 06:07:59;;;;;;;4.25;0.80;;;;;;;;;;4984952;28;20034;-84
2022/09/18 06:10:24;;;;;;;5.15;0.93;;;;;;;;;;4983261;28;20113;-85
2022/09/18 06:12:50;;;;;;;3.05;0.80;;;;;;;;;;4983201;28;20546;-86
2022/09/18 06:15:15;;;;;;;4.53;0.95;;;;;;;;;;4980082;28;20037;-84
2022/09/18 06:17:41;;;;;;;3.60;0.75;;;;;;;;;;4994599;28;20034;-87
2022/09/18 06:20:08;;;;;;;2.50;0.85;;;;;;;;;;4975705;28;20472;-85
2022/09/18 06:22:34;;;;;;;3.88;0.82;;;;;;;;;;4972071;28;20128;-86
2022/09/18 06:25:00;;;;;;;3.45;0.80;;;;;;;;;;4973047;28;20044;-86
2022/09/18 06:27:25;;;;;;;4.18;0.90;;;;;;;;;;4973918;28;20489;-87
2022/09/18 06:29:51;;;;;;;2.25;0.77;;;;;;;;;;4977681;28;20757;-87
2022/09/18 06:32:18;;;;;;;1.80;0.60;;;;;;;;;;4973194;28;20038;-86
2022/09/18 06:34:43;;;;;;;2.97;0.70;;;;;;;;;;4990126;28;20033;-88
2022/09/18 06:37:09;;;;;;;1.90;0.70;;;;;;;;;;4988932;28;20033;-86
2022/09/18 06:39:34;;;;;;;2.17;0.85;;;;;;;;;;4978222;28;20030;-90
2022/09/18 06:42:00;;;;;;;4.88;1.13;;;;;;;;;;4971038;28;20113;-88
2022/09/18 06:44:25;;;;;;;3.33;0.73;;;;;;;;;;4989141;28;20141;-89
2022/09/18 06:46:50;;;;;;;3.15;0.98;;;;;;;;;;4991305;28;20037;-86
2022/09/18 06:49:16;;;;;;;6.25;1.05;;;;;;;;;;4974517;28;20041;-88
2022/09/18 06:51:41;;;;;;;2.15;0.45;;;;;;;;;;4975311;28;20485;-88
2022/09/18 06:54:06;;;;;;;3.80;0.70;;;;;;;;;;4989821;28;20147;-88
2022/09/18 06:56:32;;;;;;;3.40;0.80;;;;;;;;;;4992757;28;20600;-87
2022/09/18 06:58:57;;;;;;;4.75;1.10;;;;;;;;;;4975620;28;20096;-87
2022/09/18 07:01:23;;;;;;;2.83;0.65;;;;;;;;;;4990117;28;20034;-86
2022/09/18 07:03:48;;;;;;;4.43;0.68;;;;;;;;;;4967377;28;20142;-88
2022/09/18 07:06:14;;;;;;;5.35;1.05;;;;;;;;;;4979934;28;20037;-88
2022/09/18 07:08:39;;;;;;;3.55;0.82;;;;;;;;;;4992202;28;20038;-89
2022/09/18 07:11:04;;;;;;;3.75;0.90;;;;;;;;;;4971704;28;20532;-87
2022/09/18 07:13:31;;;;;;;3.58;0.60;;;;;;;;;;4973264;28;20038;-91
2022/09/18 07:15:57;;;;;;;4.13;0.75;;;;;;;;;;4977830;28;20485;-89
2022/09/18 07:18:23;;;;;;;2.92;0.55;;;;;;;;;;4977057;28;20049;-86
2022/09/18 07:20:48;;;;;;;3.63;0.93;;;;;;;;;;4974819;28;20033;-89
2022/09/18 07:23:14;;;;;;;3.28;0.80;;;;;;;;;;4978816;28;20033;-87
2022/09/18 07:25:39;;;;;;;2.55;0.70;;;;;;;;;;4973787;28;20037;-88
2022/09/18 07:28:09;;;;;;;5.25;1.10;;;;;;;;;;4974387;28;20033;-90
2022/09/18 07:30:35;;;;;;;3.45;0.70;;;;;;;;;;4974172;28;20034;-89
2022/09/18 07:33:01;;;;;;;3.20;0.57;;;;;;;;;;4973712;28;20508;-89
2022/09/18 07:35:27;;;;;;;4.32;0.70;;;;;;;;;;4987539;28;20052;-88
2022/09/18 07:37:56;;;;;;;1.48;0.50;;;;;;;;;;4973653;28;20042;-85
2022/09/18 07:40:22;;;;;;;3.90;0.70;;;;;;;;;;4985147;28;20041;-86
2022/09/18 07:42:47;;;;;;;3.15;1.48;;;;;;;;;;4990918;28;20401;-87
2022/09/18 07:45:12;;;;;;;4.53;0.70;;;;;;;;;;4975634;28;20636;-89
2022/09/18 07:47:38;;;;;;;4.25;0.88;;;;;;;;;;4972074;28;20052;-88
2022/09/18 07:50:14;;;;;;;3.30;0.60;;;;;;;;;;4975541;28;20096;-91
2022/09/18 07:52:56;;;;;;;2.78;0.68;;;;;;;;;;4959405;28;20026;-88
2022/09/18 07:55:23;;;;;;;3.35;0.52;;;;;;;;;;4990261;28;20117;-87
2022/09/18 07:57:56;;;;;;;4.65;0.90;;;;;;;;;;4988268;28;20061;-88
2022/09/18 08:00:22;;;;;;;3.78;0.60;;;;;;;;;;4974805;28;20065;-87
2022/09/18 08:02:48;;;;;;;2.45;0.65;;;;;;;;;;4969442;28;20468;-88
2022/09/18 08:05:13;;;;;;;5.63;1.08;;;;;;;;;;4985206;28;20057;-88
2022/09/18 08:07:39;;;;;;;2.78;0.75;;;;;;;;;;4960228;28;20769;-88
2022/09/18 08:10:10;;;;;;;2.95;0.80;;;;;;;;;;4977957;28;20449;-89
2022/09/18 08:12:36;;;;;;;3.20;0.88;;;;;;;;;;4961723;28;20057;-88
2022/09/18 08:15:02;;;;;;;4.53;0.60;;;;;;;;;;4985532;28;20065;-87
2022/09/18 08:17:27;;;;;;;3.15;0.95;;;;;;;;;;4988284;28;20042;-86
2022/09/18 08:19:53;;;;;;;2.58;0.60;;;;;;;;;;4975056;28;20033;-86
2022/09/18 08:22:18;;;;;;;4.10;0.60;;;;;;;;;;4964909;28;20044;-87
2022/09/18 08:24:43;;;;;;;3.42;0.80;;;;;;;;;;4969177;28;20030;-91
2022/09/18 08:27:09;;;;;;;3.47;0.63;;;;;;;;;;4970014;28;20051;-86
2022/09/18 08:29:34;;;;;;;4.10;0.93;;;;;;;;;;4964420;28;20030;-88
2022/09/18 08:32:00;;;;;;;2.63;0.60;;;;;;;;;;4966404;28;20029;-88
2022/09/18 08:34:26;;;;;;;3.00;0.47;;;;;;;;;;4973273;28;20485;-87
2022/09/18 08:36:51;;;;;;;3.50;0.68;;;;;;;;;;4977120;28;20093;-86
2022/09/18 08:39:16;;;;;;;3.08;0.50;;;;;;;;;;4980450;28;20261;-89
2022/09/18 08:42:00;;;;;;;3.58;0.65;;;;;;;;;;4949110;28;20551;-89
2022/09/18 08:44:31;;;;;;;3.05;0.60;;;;;;;;;;4990767;28;20545;-88
2022/09/18 08:47:00;;;;;;;3.88;0.70;;;;;;;;;;4984752;28;20061;-86
2022/09/18 08:49:56;;;;;;;2.65;0.40;;;;;;;;;;4984705;28;20042;-88
2022/09/18 08:52:34;;;;;;;3.40;0.80;;;;;;;;;;4990120;28;20040;-85
2022/09/18 08:55:16;;;;;;;2.95;0.40;;;;;;;;;;4971367;28;20041;-89
2022/09/18 08:57:45;;;;;;;2.72;0.60;;;;;;;;;;4969391;28;20049;-87
2022/09/18 09:00:23;;;;;;;1.60;0.50;;;;;;;;;;4986120;28;20038;-86
2022/09/18 09:02:59;;;;;;;2.22;0.45;;;;;;;;;;4968213;28;20073;-87
2022/09/18 09:05:48;;;;;;;4.82;0.73;;;;;;;;;;4972910;28;20382;-87
2022/09/18 09:08:42;;;;;;;2.55;0.60;;;;;;;;;;4956117;28;20120;-87
2022/09/18 09:11:19;;;;;;;2.75;0.52;;;;;;;;;;4988536;28;20220;-87
2022/09/18 09:13:54;;;;;;;4.68;0.47;;;;;;;;;;5007107;28;20400;-89
2022/09/18 09:16:41;;;;;;;2.28;0.30;;;;;;;;;;5006334;28;20037;-86
2022/09/18 09:19:37;;;;;;;;;;;;;;;;;;5002307;28;20081;-86
2022/09/18 09:22:34;;;;;;;1.88;0.32;;;;;;;;;;4957363;28;19952;-87
2022/09/18 09:25:23;;;;;;;3.90;0.88;;;;;;;;;;4967045;28;20026;-86
2022/09/18 09:28:46;;;;;;;2.25;0.57;;;;;;;;;;4947020;28;20033;-85
2022/09/18 09:31:18;;;;;;;2.05;0.57;;;;;;;;;;4921095;28;20499;-85
2022/09/18 09:34:20;;;;;;;1.17;0.40;;;;;;;;;;4982568;28;20042;-86
2022/09/18 09:36:47;;;;;;;2.55;0.43;;;;;;;;;;4988124;28;20038;-86
2022/09/18 09:39:33;;;;;;;3.30;0.80;;;;;;;;;;4983291;28;20036;-86
2022/09/18 09:42:10;;;;;;;2.15;0.70;;;;;;;;;;4982845;28;20030;-95
2022/09/18 09:45:49;;;;;;;3.95;0.73;;;;;;;;;;4952333;28;20558;-86
2022/09/18 09:48:29;;;;;;;2.33;0.40;;;;;;;;;;4856363;29;20040;-86
2022/09/18 09:51:01;;;;;;;2.95;0.65;;;;;;;;;;4871164;29;20070;-86
2022/09/18 09:53:29;;;;;;;3.47;0.50;;;;;;;;;;4886317;29;20036;-86
2022/09/18 09:56:13;;;;;;;3.85;0.70;;;;;;;;;;4885537;29;20496;-85
2022/09/18 09:59:04;;;;;;;2.17;0.60;;;;;;;;;;4907777;29;20050;-87
2022/09/18 10:02:14;;;;;;;5.00;0.90;;;;;;;;;;4908070;29;20051;-87
2022/09/18 10:05:10;;;;;;;3.55;0.98;;;;;;;;;;4907459;29;20070;-86
2022/09/18 10:08:01;;;;;;;3.47;1.02;;;;;;;;;;4891587;29;20048;-86
2022/09/18 10:10:36;;;;;;;1.92;0.65;;;;;;;;;;4906441;29;20638;-87
2022/09/18 10:13:26;;;;;;;1.67;0.50;;;;;;;;;;4909726;29;20083;-87
2022/09/18 10:15:56;;;;;;;4.03;0.70;;;;;;;;;;4885168;29;20052;-86
2022/09/18 10:18:28;;;;;;;4.78;0.70;;;;;;;;;;4892012;29;20123;-85
2022/09/18 10:20:58;;;;;;;2.05;0.70;;;;;;;;;;4890783;29;20526;-86
2022/09/18 10:23:28;;;;;;;2.15;0.60;;;;;;;;;;4892035;29;20464;-85
2022/09/18 10:26:00;;;;;;;2.45;0.60;;;;;;;;;;4906314;29;20043;-88
2022/09/18 10:28:28;;;;;;;2.30;0.40;;;;;;;;;;4893258;29;20584;-86
2022/09/18 10:30:56;;;;;;;2.22;0.50;;;;;;;;;;4888591;29;20089;-86
2022/09/18 10:33:39;;;;;;;5.45;0.98;;;;;;;;;;4908136;29;20122;-83
2022/09/18 10:36:15;;;;;;;1.40;0.38;;;;;;;;;;4850676;29;20048;-85
2022/09/18 10:38:41;;;;;;;1.73;0.43;;;;;;;;;;4894371;29;20062;-84
2022/09/18 10:41:15;;;;;;;1.42;0.50;;;;;;;;;;4979789;28;20080;-84
2022/09/18 10:44:02;;;;;;;3.58;0.60;;;;;;;;;;4952540;28;20117;-86
2022/09/18 10:46:30;;;;;;;3.35;0.47;;;;;;;;;;4986915;28;20108;-85
2022/09/18 10:48:58;;;;;;;4.53;0.70;;;;;;;;;;4972200;28;20037;-84
2022/09/18 10:51:24;;;;;;;1.58;0.30;;;;;;;;;;4967877;28;20116;-85
2022/09/18 10:54:02;;;;;;;1.65;0.43;;;;;;;;;;4991890;28;20041;-84
2022/09/18 10:56:28;;;;;;;3.75;0.75;;;;;;;;;;4989013;28;20041;-84
2022/09/18 10:59:16;;;;;;;2.03;0.40;;;;;;;;;;4970353;28;20038;-84
2022/09/18 11:01:42;;;;;;;6.07;0.77;;;;;;;;;;4975881;28;20513;-85
2022/09/18 11:04:14;;;;;;;4.28;0.77;;;;;;;;;;4973323;28;20076;-83
2022/09/18 11:06:43;;;;;;;1.60;0.40;;;;;;;;;;4972335;28;20100;-84
2022/09/18 11:09:09;;;;;;;2.55;0.60;;;;;;;;;;4972304;28;20038;-84
2022/09/18 11:11:36;;;;;;;2.83;0.50;;;;;;;;;;4971288;28;20022;-84
2022/09/18 11:14:04;;;;;;;2.85;0.63;;;;;;;;;;4970598;28;20037;-85
2022/09/18 11:16:34;;;;;;;1.27;0.30;;;;;;;;;;4969280;28;20381;-85
2022/09/18 11:19:25;;;;;;;4.28;0.50;;;;;;;;;;4974245;28;20125;-84
2022/09/18 11:21:58;;;;;;;1.38;0.40;;;;;;;;;;4960241;28;20027;-84
2022/09/18 11:24:31;;;;;;;2.95;0.60;;;;;;;;;;4954426;28;20038;-84
2022/09/18 11:26:59;;;;;;;2.47;0.63;;;;;;;;;;4954081;28;20034;-85
2022/09/18 11:29:38;;;;;;;0.90;0.32;;;;;;;;;;4970015;28;20049;-84
2022/09/18 11:32:24;;;;;;;0.77;0.30;;;;;;;;;;4966781;28;20124;-85
2022/09/18 11:34:49;;;;;;;2.00;0.50;;;;;;;;;;4972579;28;20038;-84
2022/09/18 11:37:27;;;;;;;1.38;0.43;;;;;;;;;;4969674;28;20048;-84
2022/09/18 11:39:57;;;;;;;2.25;0.52;;;;;;;;;;4952383;28;20031;-86
2022/09/18 11:42:23;;;;;;;4.07;0.80;;;;;;;;;;4954818;28;20043;-84
2022/09/18 11:44:50;;;;;;;2.58;0.50;;;;;;;;;;4971923;28;20034;-84
2022/09/18 11:47:36;;;;;;;2.67;0.53;;;;;;;;;;4952818;28;20444;-85
2022/09/18 11:50:13;;;;;;;2.75;0.50;;;;;;;;;;4974154;28;20536;-88
2022/09/18 11:52:43;;;;;;;2.65;0.50;;;;;;;;;;4968927;28;20069;-84
2022/09/18 11:55:30;;;;;;;1.63;0.40;;;;;;;;;;4982871;28;20450;-84
2022/09/18 11:58:19;;;;;;;3.83;0.50;;;;;;;;;;4969122;28;20046;-85
2022/09/18 12:00:48;;;;;;;3.53;0.50;;;;;;;;;;4949276;28;20544;-85
2022/09/18 12:03:24;;;;;;;2.72;0.50;;;;;;;;;;4982886;28;20042;-84
2022/09/18 12:06:00;;;;;;;2.30;0.57;;;;;;;;;;4956341;28;20038;-84
2022/09/18 12:08:37;;;;;;;4.43;0.70;;;;;;;;;;4967762;28;20499;-85
2022/09/18 12:11:28;;;;;;;3.13;0.40;;;;;;;;;;4968294;28;20046;-84
2022/09/18 12:14:32;;;;;;;2.90;0.75;;;;;;;;;;4968334;28;20545;-84
2022/09/18 12:17:02;;;;;;;2.00;0.52;;;;;;;;;;4953035;28;20026;-84
2022/09/18 12:19:33;;;;;;;2.50;0.30;;;;;;;;;;4952869;28;20054;-84
2022/09/18 12:22:09;;;;;;;1.30;0.40;;;;;;;;;;4967516;28;20114;-85
2022/09/18 12:24:34;;;;;;;0.65;0.22;;;;;;;;;;4966931;28;20145;-86
2022/09/18 12:27:31;;;;;;;1.48;0.30;;;;;;;;;;4974356;28;20125;-85
2022/09/18 12:29:59;;;;;;;1.13;0.40;;;;;;;;;;4986934;28;20528;-86
2022/09/18 12:32:33;;;;;;;0.68;0.22;;;;;;;;;;4967922;28;20109;-84
2022/09/18 12:35:10;;;;;;;1.00;0.32;;;;;;;;;;4984678;28;20142;-85
2022/09/18 12:38:26;;;;;;;1.20;0.30;;;;;;;;;;4984999;28;20161;-84
2022/09/18 12:41:13;;;;;;;1.92;0.52;;;;;;;;;;4953728;28;20034;-83
2022/09/18 12:43:59;;;;;;;2.08;0.50;;;;;;;;;;4986190;28;20074;-84
2022/09/18 12:46:39;;;;;;;1.13;0.40;;;;;;;;;;4975745;28;20794;-84
2022/09/18 12:49:16;;;;;;;1.45;0.25;;;;;;;;;;4956697;28;20093;-83
2022/09/18 12:52:00;;;;;;;2.37;0.33;;;;;;;;;;4986974;28;20843;-84
2022/09/18 12:54:55;;;;;;;1.15;0.28;;;;;;;;;;4971527;28;20070;-83
2022/09/18 12:57:34;;;;;;;0.88;0.38;;;;;;;;;;4972233;28;20042;-83
2022/09/18 13:00:11;;;;;;;1.00;0.50;;;;;;;;;;4955056;28;20050;-84
2022/09/18 13:03:12;;;;;;;;;;;;;;;;;;4955306;28;20410;-83
2022/09/18 13:05:42;;;;;;;1.55;0.22;;;;;;;;;;4916411;29;19922;-83
2022/09/18 13:08:20;;;;;;;1.02;0.30;;;;;;;;;;4961345;28;20482;-83
2022/09/18 13:10:48;;;;;;;1.33;0.38;;;;;;;;;;4981779;28;20033;-84
2022/09/18 13:13:32;;;;;;;3.05;0.68;;;;;;;;;;4992657;28;20584;-84
2022/09/18 13:16:11;;;;;;;1.55;0.30;;;;;;;;;;4994795;28;20034;-83
2022/09/18 13:18:48;;;;;;;2.15;0.40;;;;;;;;;;4991461;28;20042;-83
2022/09/18 13:21:22;;;;;;;0.98;0.40;;;;;;;;;;4972260;28;20034;-84
2022/09/18 13:23:48;;;;;;;2.55;0.50;;;;;;;;;;4977019;28;20565;-84
2022/09/18 13:26:14;;;;;;;2.80;0.40;;;;;;;;;;4973945;28;20105;-84
2022/09/18 13:28:41;;;;;;;2.33;0.40;;;;;;;;;;4993425;28;20037;-83
2022/09/18 13:31:42;;;;;;;2.08;0.50;;;;;;;;;;4977808;28;20046;-84
2022/09/18 13:34:15;;;;;;;1.90;0.32;;;;;;;;;;4929755;28;20043;-84
2022/09/18 13:36:41;;;;;;;1.63;0.40;;;;;;;;;;4981981;28;20037;-83
2022/09/18 13:39:26;;;;;;;1.17;0.40;;;;;;;;;;4981888;28;20068;-83
2022/09/18 13:41:53;;;;;;;1.75;0.70;;;;;;;;;;4988973;28;20037;-84
2022/09/18 13:44:30;;;;;;;0.47;0.20;;;;;;;;;;4989956;28;20036;-83
2022/09/18 13:47:17;;;;;;;2.38;0.55;;;;;;;;;;4989295;28;20113;-83
2022/09/18 13:49:47;;;;;;;2.03;0.50;;;;;;;;;;4965494;28;20038;-83
2022/09/18 13:52:34;;;;;;;1.13;0.30;;;;;;;;;;4969465;28;20111;-86
2022/09/18 13:55:11;;;;;;;1.23;0.40;;;;;;;;;;4991929;28;20168;-83
2022/09/18 13:57:37;;;;;;;1.88;0.47;;;;;;;;;;4994188;28;20513;-83
2022/09/18 14:00:23;;;;;;;1.08;0.30;;;;;;;;;;4988965;28;20048;-84
2022/09/18 14:03:12;;;;;;;0.90;0.40;;;;;;;;;;5006471;28;20129;-84
2022/09/18 14:05:40;;;;;;;2.15;0.50;;;;;;;;;;4990652;28;20096;-84
2022/09/18 14:08:08;;;;;;;2.38;0.57;;;;;;;;;;4982237;28;20041;-84
2022/09/18 14:10:34;;;;;;;2.38;0.60;;;;;;;;;;5007572;28;20038;-83
2022/09/18 14:13:28;;;;;;;2.45;0.40;;;;;;;;;;5006516;28;20397;-83
2022/09/18 14:16:18;;;;;;;1.13;0.35;;;;;;;;;;4976710;28;20030;-83
2022/09/18 14:18:45;;;;;;;1.63;0.38;;;;;;;;;;5009171;28;20038;-83
2022/09/18 14:21:20;;;;;;;2.28;0.40;;;;;;;;;;4990099;28;20038;-84
2022/09/18 14:23:45;;;;;;;1.80;0.47;;;;;;;;;;4974579;28;20041;-83
2022/09/18 14:26:36;;;;;;;1.92;0.60;;;;;;;;;;4994073;28;20034;-84
2022/09/18 14:29:14;;;;;;;1.42;0.50;;;;;;;;;;4990773;28;20068;-83
2022/09/18 14:32:08;;;;;;;;;;;;;;;;;;4964831;28;20034;-83
2022/09/18 14:34:41;;;;;;;2.33;0.43;;;;;;;;;;4952329;28;19918;-83
2022/09/18 14:37:29;;;;;;;2.33;0.52;;;;;;;;;;4977798;28;20042;-83
2022/09/18 14:39:56;;;;;;;2.63;0.82;;;;;;;;;;4975882;28;20122;-83
2022/09/18 14:42:27;;;;;;;2.30;0.70;;;;;;;;;;4974631;28;20038;-83
2022/09/18 14:45:12;;;;;;;1.50;0.50;;;;;;;;;;4974052;28;20501;-83
2022/09/18 14:47:42;;;;;;;2.00;0.40;;;;;;;;;;4989375;28;20508;-83
2022/09/18 14:50:21;;;;;;;1.92;0.60;;;;;;;;;;4975740;28;20484;-83
2022/09/18 14:52:46;;;;;;;2.25;0.60;;;;;;;;;;4979001;28;20057;-83
2022/09/18 14:55:18;;;;;;;1.85;0.50;;;;;;;;;;4988464;28;20058;-83
2022/09/18 14:57:47;;;;;;;1.40;0.40;;;;;;;;;;4968821;28;20076;-83
2022/09/18 15:00:21;;;;;;;3.08;0.60;;;;;;;;;;4989758;28;20634;-83
2022/09/18 15:02:51;;;;;;;1.10;0.40;;;;;;;;;;4990128;28;20473;-84
2022/09/18 15:05:19;;;;;;;1.27;0.43;;;;;;;;;;4984260;28;20061;-84
2022/09/18 15:07:52;;;;;;;2.90;0.68;;;;;;;;;;4969111;28;20038;-84
2022/09/18 15:10:18;;;;;;;1.52;0.60;;;;;;;;;;4956764;28;20485;-83
2022/09/18 15:12:43;;;;;;;0.95;0.40;;;;;;;;;;4971321;28;20058;-82
2022/09/18 15:15:33;;;;;;;1.08;0.40;;;;;;;;;;4954434;28;20121;-83